Varsseveld, Netherlands
Current Conditions -  °F | °C
As of 10:55 AM on Tuesday 27 Jan 2015 (Local Time) from EHDL Reporting Station
Broken Clouds Broken Clouds  
Wind Chill: 34°   Ceiling: 5000
Heat Index: 39°   Visibility: 6mi
Dew Point: 37°   Wind: 7mph
Humidity: 93%   Direction: 260°W
Pressure: 30.18"   Gusts: NA
Location:  51.94°N, 6.46°E
Report Text: EHDL 270955Z AUTO 26006KT 9999 FEW021 BKN050 BKN060 04/03 Q1022 BLU
Loading
Personal Weather Stations






























Interactive Weather Map New forecast layout! Learn more

10-Day Weather Forecast

Advertisements
Track Severe Weather on mobile